createdAt,value
2018-12-26T00:00:50.464Z,-1.20
2018-12-26T00:03:19.051Z,-1.20
2018-12-26T00:05:47.742Z,-1.20
2018-12-26T00:08:16.419Z,-1.30
2018-12-26T00:10:45.023Z,-1.30
2018-12-26T00:13:14.568Z,-1.40
2018-12-26T00:15:43.179Z,-1.40
2018-12-26T00:18:11.763Z,-1.40
2018-12-26T00:20:40.363Z,-1.40
2018-12-26T00:23:08.951Z,-1.40
2018-12-26T00:25:37.547Z,-1.40
2018-12-26T00:28:06.155Z,-1.50
2018-12-26T00:30:34.771Z,-1.50
2018-12-26T00:33:03.365Z,-1.60
2018-12-26T00:35:31.963Z,-1.60
2018-12-26T00:38:00.554Z,-1.60
2018-12-26T00:40:29.155Z,-1.60
2018-12-26T00:42:57.769Z,-1.60
2018-12-26T00:45:26.414Z,-1.60
2018-12-26T00:47:55.005Z,-1.60
2018-12-26T00:50:23.627Z,-1.60
2018-12-26T00:52:52.212Z,-1.60
2018-12-26T00:55:20.815Z,-1.60
2018-12-26T00:57:49.406Z,-1.60
2018-12-26T01:00:18.015Z,-1.70
2018-12-26T01:02:46.602Z,-1.70
2018-12-26T01:05:15.229Z,-1.70
2018-12-26T01:07:43.807Z,-1.70
2018-12-26T01:10:12.400Z,-1.70
2018-12-26T01:12:42.927Z,-1.60
2018-12-26T01:15:11.511Z,-1.60
2018-12-26T01:17:40.111Z,-1.60
2018-12-26T01:20:08.703Z,-1.60
2018-12-26T01:22:38.282Z,-1.60
2018-12-26T01:25:06.871Z,-1.60
2018-12-26T01:27:35.475Z,-1.60
2018-12-26T01:30:04.600Z,-1.50
2018-12-26T01:32:33.195Z,-1.50
2018-12-26T01:35:01.784Z,-1.50
2018-12-26T01:37:30.383Z,-1.50
2018-12-26T01:39:58.979Z,-1.50
2018-12-26T01:42:28.480Z,-1.40
2018-12-26T01:44:57.067Z,-1.40
2018-12-26T01:47:25.690Z,-1.30
2018-12-26T01:49:54.280Z,-1.30
2018-12-26T01:52:22.868Z,-1.40
2018-12-26T01:54:51.462Z,-1.40
2018-12-26T01:57:20.058Z,-1.50
2018-12-26T01:59:48.655Z,-1.50
2018-12-26T02:02:17.247Z,-1.60
2018-12-26T02:04:45.861Z,-1.60
2018-12-26T02:07:14.439Z,-1.60
2018-12-26T02:09:43.046Z,-1.60
2018-12-26T02:12:11.627Z,-1.60
2018-12-26T02:14:40.223Z,-1.60
2018-12-26T02:17:08.807Z,-1.60
2018-12-26T02:19:37.407Z,-1.60
2018-12-26T02:22:06.001Z,-1.70
2018-12-26T02:24:34.594Z,-1.70
2018-12-26T02:27:03.178Z,-1.70
2018-12-26T02:29:31.791Z,-1.70
2018-12-26T02:32:00.376Z,-1.70
2018-12-26T02:34:28.986Z,-1.70
2018-12-26T02:36:57.585Z,-1.80
2018-12-26T02:39:26.188Z,-1.80
2018-12-26T02:41:54.769Z,-1.80
2018-12-26T02:44:23.372Z,-1.80
2018-12-26T02:46:51.955Z,-1.80
2018-12-26T02:49:20.555Z,-1.90
2018-12-26T02:51:49.153Z,-1.90
2018-12-26T02:54:17.739Z,-2.00
2018-12-26T02:56:49.040Z,-2.00
2018-12-26T02:59:16.641Z,-2.00
2018-12-26T03:01:45.247Z,-2.00
2018-12-26T03:04:13.841Z,-2.00
2018-12-26T03:06:42.435Z,-2.10
2018-12-26T03:09:11.033Z,-2.10
2018-12-26T03:11:39.629Z,-2.10
2018-12-26T03:14:08.211Z,-2.10
2018-12-26T03:16:36.818Z,-2.10
2018-12-26T03:19:05.398Z,-2.10
2018-12-26T03:21:33.999Z,-2.10
2018-12-26T03:24:02.591Z,-2.10
2018-12-26T03:26:31.193Z,-2.10
2018-12-26T03:28:59.777Z,-2.20
2018-12-26T03:31:28.364Z,-2.30
2018-12-26T03:33:56.960Z,-2.30
2018-12-26T03:36:25.615Z,-2.40
2018-12-26T03:38:54.215Z,-2.40
2018-12-26T03:41:22.871Z,-2.40
2018-12-26T03:43:51.539Z,-2.50
2018-12-26T03:46:20.295Z,-2.50
2018-12-26T03:48:48.895Z,-2.40
2018-12-26T03:51:17.556Z,-2.40
2018-12-26T03:53:46.164Z,-2.40
2018-12-26T03:56:14.808Z,-2.40
2018-12-26T03:58:43.478Z,-2.40
2018-12-26T04:01:12.095Z,-2.50
2018-12-26T04:03:40.699Z,-2.60
2018-12-26T04:06:09.351Z,-2.60
2018-12-26T04:08:38.020Z,-2.60
2018-12-26T04:11:06.678Z,-2.60
2018-12-26T04:13:35.359Z,-2.70
2018-12-26T04:16:04.087Z,-2.70
2018-12-26T04:18:32.674Z,-2.70
2018-12-26T04:21:01.412Z,-2.70
2018-12-26T04:23:30.070Z,-2.70
2018-12-26T04:25:58.660Z,-2.70
2018-12-26T04:28:27.325Z,-2.70
2018-12-26T04:30:55.919Z,-2.70
2018-12-26T04:33:24.511Z,-2.70
2018-12-26T04:35:53.106Z,-2.70
2018-12-26T04:38:21.695Z,-2.70
2018-12-26T04:40:50.305Z,-2.60
2018-12-26T04:43:18.892Z,-2.60
2018-12-26T04:45:47.496Z,-2.70
2018-12-26T04:48:16.083Z,-2.70
2018-12-26T04:50:44.679Z,-2.70
2018-12-26T04:53:13.270Z,-2.70
2018-12-26T04:55:41.876Z,-2.80
2018-12-26T04:58:10.463Z,-2.80
2018-12-26T05:00:39.074Z,-2.80
2018-12-26T05:03:07.663Z,-2.90
2018-12-26T05:05:36.267Z,-2.90
2018-12-26T05:08:04.847Z,-2.90
2018-12-26T05:10:33.460Z,-3.00
2018-12-26T05:13:02.046Z,-3.00
2018-12-26T05:15:30.646Z,-3.00
2018-12-26T05:17:59.243Z,-3.00
2018-12-26T05:20:27.843Z,-3.00
2018-12-26T05:22:56.438Z,-3.10
2018-12-26T05:25:25.071Z,-3.10
2018-12-26T05:27:53.663Z,-3.10
2018-12-26T05:30:22.249Z,-3.20
2018-12-26T05:32:50.842Z,-3.20
2018-12-26T05:35:19.427Z,-3.30
2018-12-26T05:37:48.047Z,-3.30
2018-12-26T05:40:16.681Z,-3.30
2018-12-26T05:42:45.315Z,-3.20
2018-12-26T05:45:15.998Z,-3.30
2018-12-26T05:47:44.250Z,-3.40
2018-12-26T05:50:12.840Z,-3.40
2018-12-26T05:52:41.435Z,-3.40
2018-12-26T05:55:10.027Z,-3.40
2018-12-26T05:57:42.682Z,-3.30
2018-12-26T06:00:08.939Z,-3.30
2018-12-26T06:02:37.535Z,-3.30
2018-12-26T06:05:06.127Z,-3.30
2018-12-26T06:07:34.771Z,-3.40
2018-12-26T06:10:03.391Z,-3.40
2018-12-26T06:12:31.988Z,-3.40
2018-12-26T06:15:03.266Z,-3.40
2018-12-26T06:17:31.876Z,-3.40
2018-12-26T06:20:00.459Z,-3.50
2018-12-26T06:22:30.043Z,-3.60
2018-12-26T06:24:58.627Z,-3.60
2018-12-26T06:27:27.224Z,-3.70
2018-12-26T06:29:55.822Z,-3.60
2018-12-26T06:32:24.415Z,-3.60
2018-12-26T06:34:53.019Z,-3.60
2018-12-26T06:37:21.606Z,-3.50
2018-12-26T06:39:50.207Z,-3.50
2018-12-26T06:42:18.803Z,-3.50
2018-12-26T06:44:47.391Z,-3.60
2018-12-26T06:47:15.978Z,-3.60
2018-12-26T06:49:45.440Z,-3.50
2018-12-26T06:52:14.055Z,-3.50
2018-12-26T06:54:42.654Z,-3.60
2018-12-26T06:57:11.243Z,-3.60
2018-12-26T06:59:39.847Z,-3.60
2018-12-26T07:02:08.435Z,-3.60
2018-12-26T07:04:37.039Z,-3.60
2018-12-26T07:07:05.628Z,-3.60
2018-12-26T07:09:34.223Z,-3.70
2018-12-26T07:12:02.816Z,-3.80
2018-12-26T07:14:31.403Z,-3.80
2018-12-26T07:17:00.003Z,-3.80
2018-12-26T07:19:28.588Z,-3.80
2018-12-26T07:21:57.192Z,-3.80
2018-12-26T07:24:25.784Z,-3.80
2018-12-26T07:26:54.381Z,-3.80
2018-12-26T07:29:22.967Z,-3.80
2018-12-26T07:31:51.567Z,-3.80
2018-12-26T07:34:20.170Z,-3.80
2018-12-26T07:36:48.834Z,-3.70
2018-12-26T07:39:17.427Z,-3.70
2018-12-26T07:41:46.027Z,-3.70
2018-12-26T07:44:14.608Z,-3.70
2018-12-26T07:46:43.207Z,-3.60
2018-12-26T07:49:11.807Z,-3.60
2018-12-26T07:51:40.406Z,-3.50
2018-12-26T07:54:09.015Z,-3.50
2018-12-26T07:56:37.627Z,-3.40
2018-12-26T07:59:06.226Z,-3.30
2018-12-26T08:01:34.819Z,-3.30
2018-12-26T08:04:03.427Z,-3.20
2018-12-26T08:06:32.015Z,-3.20
2018-12-26T08:09:00.615Z,-3.10
2018-12-26T08:11:29.225Z,-3.10
2018-12-26T08:13:57.831Z,-3.00
2018-12-26T08:16:26.423Z,-2.90
2018-12-26T08:18:55.040Z,-2.90
2018-12-26T08:21:23.620Z,-2.90
2018-12-26T08:23:52.218Z,-2.80
2018-12-26T08:26:20.811Z,-2.60
2018-12-26T08:28:49.415Z,-2.50
2018-12-26T08:31:18.007Z,-2.40
2018-12-26T08:33:46.611Z,-2.40
2018-12-26T08:36:15.207Z,-2.30
2018-12-26T08:38:43.807Z,-2.20
2018-12-26T08:41:12.394Z,-2.10
2018-12-26T08:43:41.000Z,-2.10
2018-12-26T08:46:09.582Z,-2.00
2018-12-26T08:48:38.179Z,-2.00
2018-12-26T08:51:06.775Z,-2.00
2018-12-26T08:53:35.376Z,-1.80
2018-12-26T08:56:03.962Z,-1.80
2018-12-26T08:58:35.280Z,-1.80
2018-12-26T09:01:03.290Z,-1.60
2018-12-26T09:03:31.883Z,-1.50
2018-12-26T09:06:00.479Z,-1.30
2018-12-26T09:08:29.067Z,-1.20
2018-12-26T09:10:57.678Z,-1.20
2018-12-26T09:13:26.255Z,-1.10
2018-12-26T09:15:54.862Z,-1.10
2018-12-26T09:18:23.448Z,-0.90
2018-12-26T09:20:52.060Z,-0.70
2018-12-26T09:23:20.649Z,-0.70
2018-12-26T09:25:50.483Z,-0.80
2018-12-26T09:28:19.110Z,-0.70
2018-12-26T09:30:47.747Z,-0.70
2018-12-26T09:33:17.279Z,-0.40
2018-12-26T09:35:45.882Z,-0.40
2018-12-26T09:38:14.471Z,-0.40
2018-12-26T09:40:43.071Z,-0.50
2018-12-26T09:43:17.551Z,-0.40
2018-12-26T09:45:46.151Z,-0.30
2018-12-26T09:48:14.743Z,-0.20
2018-12-26T09:50:43.340Z,0.00
2018-12-26T09:53:11.923Z,0.20
2018-12-26T09:55:40.528Z,0.30
2018-12-26T09:58:09.111Z,0.40
2018-12-26T10:00:37.710Z,0.50
2018-12-26T10:03:06.295Z,0.50
2018-12-26T10:05:34.880Z,0.50
2018-12-26T10:08:03.470Z,0.40
2018-12-26T10:10:32.050Z,0.20
2018-12-26T10:13:00.650Z,0.30
2018-12-26T10:15:29.235Z,0.30
2018-12-26T10:17:57.831Z,0.40
2018-12-26T10:20:26.413Z,0.50
2018-12-26T10:22:55.017Z,0.50
2018-12-26T10:25:23.599Z,0.60
2018-12-26T10:27:52.196Z,0.50
2018-12-26T10:30:20.779Z,0.70
2018-12-26T10:32:49.380Z,0.80
2018-12-26T10:35:17.963Z,0.90
2018-12-26T10:37:46.571Z,1.00
2018-12-26T10:40:15.151Z,1.10
2018-12-26T10:42:45.900Z,1.20
2018-12-26T10:45:14.048Z,1.30
2018-12-26T10:47:42.665Z,1.30
2018-12-26T10:50:11.316Z,1.40
2018-12-26T10:52:41.870Z,1.50
2018-12-26T10:55:10.463Z,1.40
2018-12-26T10:57:39.046Z,1.60
2018-12-26T11:00:10.393Z,1.40
2018-12-26T11:02:38.971Z,1.50
2018-12-26T11:05:08.035Z,1.30
2018-12-26T11:07:36.623Z,1.30
2018-12-26T11:10:05.395Z,1.50
2018-12-26T11:12:35.036Z,1.50
2018-12-26T11:15:04.530Z,1.80
2018-12-26T11:17:33.295Z,1.80
2018-12-26T11:20:01.904Z,1.90
2018-12-26T11:22:30.487Z,1.90
2018-12-26T11:24:59.104Z,2.00
2018-12-26T11:27:27.708Z,1.80
2018-12-26T11:29:56.304Z,1.80
2018-12-26T11:32:24.949Z,1.70
2018-12-26T11:34:53.549Z,1.90
2018-12-26T11:37:22.183Z,1.90
2018-12-26T11:39:50.855Z,1.90
2018-12-26T11:42:20.437Z,1.90
2018-12-26T11:44:49.120Z,2.00
2018-12-26T11:47:17.715Z,2.10
2018-12-26T11:49:46.332Z,2.20
2018-12-26T11:52:14.940Z,2.20
2018-12-26T11:54:43.545Z,2.60
2018-12-26T11:57:12.155Z,2.80
2018-12-26T11:59:40.743Z,2.90
2018-12-26T12:02:09.352Z,2.90
2018-12-26T12:04:38.316Z,2.50
2018-12-26T12:07:06.944Z,2.40
2018-12-26T12:09:35.535Z,2.30
2018-12-26T12:12:04.167Z,2.50
2018-12-26T12:14:32.760Z,2.30
2018-12-26T12:17:01.356Z,2.20
2018-12-26T12:19:29.949Z,2.10
2018-12-26T12:21:58.544Z,2.10
2018-12-26T12:24:27.128Z,2.10
2018-12-26T12:26:55.726Z,2.00
2018-12-26T12:29:24.307Z,2.10
2018-12-26T12:31:52.907Z,2.00
2018-12-26T12:34:21.492Z,1.80
2018-12-26T12:36:50.155Z,1.90
2018-12-26T12:39:18.879Z,1.80
2018-12-26T12:41:47.547Z,1.90
2018-12-26T12:44:16.131Z,2.00
2018-12-26T12:46:44.800Z,2.20
2018-12-26T12:49:13.378Z,2.40
2018-12-26T12:51:41.983Z,2.60
2018-12-26T12:54:10.591Z,2.70
2018-12-26T12:56:39.175Z,3.10
2018-12-26T12:59:07.771Z,3.00
2018-12-26T13:01:36.431Z,3.00
2018-12-26T13:04:05.030Z,2.80
2018-12-26T13:06:33.629Z,2.80
2018-12-26T13:09:02.221Z,2.60
2018-12-26T13:11:30.810Z,2.50
2018-12-26T13:13:59.403Z,2.30
2018-12-26T13:16:27.990Z,2.20
2018-12-26T13:18:56.587Z,1.90
2018-12-26T13:21:25.171Z,1.80
2018-12-26T13:23:53.771Z,1.80
2018-12-26T13:26:22.356Z,1.80
2018-12-26T13:28:50.950Z,1.80
2018-12-26T13:31:19.534Z,1.90
2018-12-26T13:33:48.119Z,1.90
2018-12-26T13:36:16.719Z,1.90
2018-12-26T13:38:45.295Z,1.90
2018-12-26T13:41:13.899Z,1.80
2018-12-26T13:43:42.485Z,1.90
2018-12-26T13:46:11.074Z,1.80
2018-12-26T13:48:39.663Z,1.80
2018-12-26T13:51:08.255Z,1.70
2018-12-26T13:53:36.843Z,1.70
2018-12-26T13:56:05.436Z,1.80
2018-12-26T13:58:34.032Z,1.70
2018-12-26T14:01:02.643Z,1.70
2018-12-26T14:03:31.227Z,1.70
2018-12-26T14:05:59.849Z,1.90
2018-12-26T14:08:28.432Z,1.90
2018-12-26T14:10:57.023Z,1.90
2018-12-26T14:13:25.608Z,1.80
2018-12-26T14:15:54.219Z,1.70
2018-12-26T14:18:22.809Z,1.70
2018-12-26T14:20:51.387Z,1.60
2018-12-26T14:23:19.982Z,1.70
2018-12-26T14:25:48.566Z,1.70
2018-12-26T14:28:17.171Z,1.70
2018-12-26T14:30:45.751Z,1.60
2018-12-26T14:33:14.348Z,1.70
2018-12-26T14:35:46.012Z,1.70
2018-12-26T14:38:14.607Z,1.70
2018-12-26T14:40:43.195Z,1.60
2018-12-26T14:43:13.731Z,1.60
2018-12-26T14:45:42.316Z,1.50
2018-12-26T14:48:10.980Z,1.50
2018-12-26T14:50:39.571Z,1.40
2018-12-26T14:53:08.171Z,1.40
2018-12-26T14:55:36.754Z,1.40
2018-12-26T14:58:05.355Z,1.40
2018-12-26T15:00:33.935Z,1.40
2018-12-26T15:03:02.532Z,1.40
2018-12-26T15:05:31.123Z,1.50
2018-12-26T15:07:59.719Z,1.60
2018-12-26T15:10:28.375Z,1.50
2018-12-26T15:12:56.986Z,1.50
2018-12-26T15:15:25.571Z,1.40
2018-12-26T15:17:54.841Z,1.40
2018-12-26T15:20:23.527Z,1.20
2018-12-26T15:22:52.114Z,1.30
2018-12-26T15:25:20.717Z,1.10
2018-12-26T15:27:49.291Z,1.10
2018-12-26T15:30:17.886Z,1.00
2018-12-26T15:32:46.471Z,1.00
2018-12-26T15:35:15.067Z,1.00
2018-12-26T15:37:43.655Z,0.90
2018-12-26T15:40:12.421Z,1.00
2018-12-26T15:42:41.005Z,0.90
2018-12-26T15:45:09.598Z,0.90
2018-12-26T15:47:38.183Z,0.80
2018-12-26T15:50:07.315Z,0.80
2018-12-26T15:52:35.901Z,0.80
2018-12-26T15:55:04.507Z,0.70
2018-12-26T15:57:33.092Z,0.70
2018-12-26T16:00:01.696Z,0.70
2018-12-26T16:02:30.271Z,0.60
2018-12-26T16:04:58.862Z,0.50
2018-12-26T16:07:27.447Z,0.50
2018-12-26T16:09:56.075Z,0.40
2018-12-26T16:12:27.737Z,0.40
2018-12-26T16:14:56.312Z,0.40
2018-12-26T16:17:24.911Z,0.40
2018-12-26T16:19:53.500Z,0.40
2018-12-26T16:22:22.100Z,0.50
2018-12-26T16:24:50.685Z,0.50
2018-12-26T16:27:19.275Z,0.50
2018-12-26T16:29:47.863Z,0.50
2018-12-26T16:32:16.454Z,0.50
2018-12-26T16:34:45.039Z,0.50
2018-12-26T16:37:13.639Z,0.50
2018-12-26T16:39:42.224Z,0.40
2018-12-26T16:42:10.843Z,0.40
2018-12-26T16:44:39.437Z,0.30
2018-12-26T16:47:08.033Z,0.30
2018-12-26T16:49:36.621Z,0.30
2018-12-26T16:52:05.211Z,0.20
2018-12-26T16:54:33.801Z,0.20
2018-12-26T16:57:02.465Z,0.20
2018-12-26T16:59:31.047Z,0.20
2018-12-26T17:01:59.643Z,0.20
2018-12-26T17:04:28.231Z,0.20
2018-12-26T17:06:56.828Z,0.20
2018-12-26T17:09:25.415Z,0.20
2018-12-26T17:11:54.033Z,0.30
2018-12-26T17:14:23.427Z,0.20
2018-12-26T17:16:52.015Z,0.20
2018-12-26T17:19:20.610Z,0.20
2018-12-26T17:21:49.191Z,0.20
2018-12-26T17:24:17.790Z,0.20
2018-12-26T17:26:46.380Z,0.20
2018-12-26T17:29:14.981Z,0.20
2018-12-26T17:31:43.559Z,0.10
2018-12-26T17:34:12.155Z,0.20
2018-12-26T17:36:40.762Z,0.20
2018-12-26T17:39:09.339Z,0.20
2018-12-26T17:41:37.928Z,0.20
2018-12-26T17:44:06.519Z,0.20
2018-12-26T17:46:35.098Z,0.20
2018-12-26T17:49:03.703Z,0.20
2018-12-26T17:51:32.284Z,0.20
2018-12-26T17:54:06.451Z,0.20
2018-12-26T17:56:38.103Z,0.20
2018-12-26T17:59:09.795Z,0.20
2018-12-26T18:01:52.798Z,0.20
2018-12-26T18:04:21.405Z,0.20
2018-12-26T18:06:50.062Z,0.20
2018-12-26T18:09:18.655Z,0.20
2018-12-26T18:11:47.243Z,0.20
2018-12-26T18:14:15.875Z,0.20
2018-12-26T18:16:44.465Z,0.20
2018-12-26T18:19:13.046Z,0.30
2018-12-26T18:21:41.642Z,0.30
2018-12-26T18:24:10.228Z,0.30
2018-12-26T18:26:38.823Z,0.30
2018-12-26T18:29:07.412Z,0.30
2018-12-26T18:31:36.842Z,0.20
2018-12-26T18:34:05.882Z,0.30
2018-12-26T18:36:34.467Z,0.30
2018-12-26T18:39:03.785Z,0.30
2018-12-26T18:41:32.394Z,0.30
2018-12-26T18:44:01.050Z,0.40
2018-12-26T18:46:29.643Z,0.40
2018-12-26T18:48:58.226Z,0.40
2018-12-26T18:51:26.825Z,0.40
2018-12-26T18:53:55.416Z,0.40
2018-12-26T18:56:24.006Z,0.40
2018-12-26T18:58:52.587Z,0.30
2018-12-26T19:01:21.283Z,0.40
2018-12-26T19:03:49.843Z,0.40
2018-12-26T19:06:18.439Z,0.50
2018-12-26T19:08:47.023Z,0.50
2018-12-26T19:11:15.623Z,0.50
2018-12-26T19:13:44.208Z,0.40
2018-12-26T19:16:12.791Z,0.40
2018-12-26T19:18:41.395Z,0.40
2018-12-26T19:21:09.979Z,0.40
2018-12-26T19:23:38.594Z,0.40
2018-12-26T19:26:07.174Z,0.40
2018-12-26T19:28:35.772Z,0.40
2018-12-26T19:31:04.357Z,0.50
2018-12-26T19:33:32.975Z,0.40
2018-12-26T19:36:01.559Z,0.50
2018-12-26T19:38:30.165Z,0.50
2018-12-26T19:40:58.815Z,0.40
2018-12-26T19:43:28.321Z,0.50
2018-12-26T19:45:56.875Z,0.50
2018-12-26T19:48:25.471Z,0.50
2018-12-26T19:50:54.051Z,0.50
2018-12-26T19:53:22.655Z,0.50
2018-12-26T19:55:51.242Z,0.50
2018-12-26T19:58:19.871Z,0.40
2018-12-26T20:00:48.535Z,0.40
2018-12-26T20:03:17.131Z,0.40
2018-12-26T20:05:45.715Z,0.40
2018-12-26T20:08:14.303Z,0.40
2018-12-26T20:10:42.898Z,0.40
2018-12-26T20:13:12.438Z,0.40
2018-12-26T20:15:41.035Z,0.40
2018-12-26T20:18:09.621Z,0.40
2018-12-26T20:20:38.216Z,0.50
2018-12-26T20:23:11.454Z,0.50
2018-12-26T20:25:40.052Z,0.50
2018-12-26T20:28:08.635Z,0.50
2018-12-26T20:30:37.236Z,0.50
2018-12-26T20:33:05.819Z,0.50
2018-12-26T20:35:34.427Z,0.40
2018-12-26T20:38:03.008Z,0.40
2018-12-26T20:40:31.607Z,0.50
2018-12-26T20:43:00.190Z,0.50
2018-12-26T20:45:28.790Z,0.50
2018-12-26T20:47:57.375Z,0.60
2018-12-26T20:50:25.987Z,0.50
2018-12-26T20:52:54.575Z,0.50
2018-12-26T20:55:23.168Z,0.50
2018-12-26T20:57:51.773Z,0.50
2018-12-26T21:00:20.466Z,0.50
2018-12-26T21:02:49.050Z,0.50
2018-12-26T21:05:17.635Z,0.50
2018-12-26T21:07:46.237Z,0.50
2018-12-26T21:10:14.818Z,0.60
2018-12-26T21:12:43.419Z,0.60
2018-12-26T21:15:12.007Z,0.60
2018-12-26T21:17:40.596Z,0.60
2018-12-26T21:20:09.247Z,0.60
2018-12-26T21:22:37.923Z,0.70
2018-12-26T21:25:07.543Z,0.70
2018-12-26T21:27:36.157Z,0.70
2018-12-26T21:30:07.806Z,0.70
2018-12-26T21:32:42.377Z,0.70
2018-12-26T21:35:10.970Z,0.70
2018-12-26T21:37:39.567Z,0.70
2018-12-26T21:40:08.895Z,0.70
2018-12-26T21:42:37.491Z,0.70
2018-12-26T21:45:08.337Z,0.70
2018-12-26T21:47:36.923Z,0.70
2018-12-26T21:50:08.851Z,0.70
2018-12-26T21:52:37.436Z,0.70
2018-12-26T21:55:06.045Z,0.70
2018-12-26T21:57:34.622Z,0.70
2018-12-26T22:00:03.458Z,0.70
2018-12-26T22:02:35.192Z,0.70
2018-12-26T22:05:03.851Z,0.70
2018-12-26T22:07:32.431Z,0.60
2018-12-26T22:10:01.027Z,0.60
2018-12-26T22:12:30.539Z,0.70
2018-12-26T22:14:59.143Z,0.70
2018-12-26T22:17:27.727Z,0.70
2018-12-26T22:19:56.323Z,0.70
2018-12-26T22:22:24.906Z,0.70
2018-12-26T22:24:53.504Z,0.70
2018-12-26T22:27:22.086Z,0.70
2018-12-26T22:29:50.683Z,0.70
2018-12-26T22:32:19.278Z,0.70
2018-12-26T22:34:47.870Z,0.70
2018-12-26T22:37:16.459Z,0.70
2018-12-26T22:39:45.072Z,0.70
2018-12-26T22:42:13.659Z,0.70
2018-12-26T22:44:42.267Z,0.80
2018-12-26T22:47:10.851Z,0.70
2018-12-26T22:49:39.437Z,0.70
2018-12-26T22:52:09.036Z,0.80
2018-12-26T22:54:37.620Z,0.80
2018-12-26T22:57:06.215Z,0.70
2018-12-26T22:59:34.800Z,0.70
2018-12-26T23:02:03.573Z,0.80
2018-12-26T23:04:32.159Z,0.70
2018-12-26T23:07:00.771Z,0.70
2018-12-26T23:09:29.355Z,0.70
2018-12-26T23:11:57.950Z,0.70
2018-12-26T23:14:26.547Z,0.70
2018-12-26T23:16:55.147Z,0.80
2018-12-26T23:19:23.735Z,0.80
2018-12-26T23:21:52.340Z,0.80
2018-12-26T23:24:20.919Z,0.80
2018-12-26T23:26:49.523Z,0.90
2018-12-26T23:29:18.103Z,0.90
2018-12-26T23:31:46.707Z,0.90
2018-12-26T23:34:15.286Z,1.00
2018-12-26T23:36:43.907Z,1.00
2018-12-26T23:39:12.491Z,1.00
2018-12-26T23:41:41.079Z,1.00
2018-12-26T23:44:09.687Z,1.00
2018-12-26T23:46:38.274Z,1.00
2018-12-26T23:49:06.875Z,1.00
2018-12-26T23:51:35.463Z,1.00
2018-12-26T23:54:04.058Z,1.00
2018-12-26T23:56:32.642Z,1.00
2018-12-26T23:59:01.240Z,1.00
